Flight Track Log - Related Links

Times and Time Zones

All times are in EDT time to prevent confusion due to time zone crossing. See the FLG3729 flight status page for this flight to view local times or setup timezone preferences in your user account.

Time Position Orientation Groundspeed Altitude Reporting Facility
EDT Latitude Longitude Course Direction KTS MPH feet Rate Location/Type
Tue 05:46:55 AM 42.7631 -73.8089 304° West 140 161 1,200  Level Boston Center
Tue 05:47:13 AM 42.7797 -73.8119 352° North 161 185 1,900 2,545 Climbing Boston Center
Tue 05:48:01 AM 42.8147 -73.8581 316° Northwest 217 250 4,000 2,667 Climbing Boston Center
Tue 05:49:00 AM 42.8104 -74.1724 281° West  Level FlightAware Approximate
Tue 05:49:01 AM 42.8533 -73.9356 304° West 232 267 6,700  Level Boston Center
Tue 05:50:00 AM 42.8287 -74.3009 281° West  Level FlightAware Approximate
Tue 05:50:01 AM 42.8978 -74.0244 304° West 268 308 9,900  Level Boston Center
Tue 05:51:00 AM 42.8493 -74.4287 283° West  Level FlightAware Approximate
Tue 05:51:01 AM 42.9464 -74.1250 303° West 328 377 10,000  Level Boston Center
Tue 05:52:00 AM 42.8765 -74.5529 304° West  Level FlightAware Approximate
Tue 05:52:01 AM 43.0111 -74.2544 304° West 375 432 11,600  Level Boston Center
Tue 05:53:01 AM 43.0342 -74.3772 284° West 377 434 13,200 1,700 Climbing Boston Center
Tue 05:54:01 AM 43.0458 -74.5397 276° West 389 448 15,000 1,400 Climbing Boston Center
Tue 05:55:01 AM 43.0578 -74.6764 277° West 406 467 16,000 1,200 Climbing Boston Center
Tue 05:56:01 AM 43.0711 -74.8475 276° West 411 473 17,400 1,250 Climbing Boston Center
Tue 05:57:01 AM 43.0822 -75.0072 275° West 411 473 18,500 1,050 Climbing Boston Center
Tue 05:58:01 AM 43.0931 -75.1642 275° West 421 484 19,500 1,000 Climbing Boston Center
Tue 05:59:01 AM 43.1058 -75.3267 276° West 427 491 20,500 1,050 Climbing Boston Center
Tue 06:00:01 AM 43.1161 -75.4894 275° West 427 491 21,600 950 Climbing Boston Center
Tue 06:01:01 AM 43.1269 -75.6322 276° West 427 491 22,400 690 Climbing Boston Center
Tue 06:03:21 AM 43.1497 -76.0183 275° West 424 488 23,900 630 Climbing Cleveland Center
Tue 06:04:21 AM 43.1603 -76.1825 275° West 436 502 24,500 600 Climbing Cleveland Center
Tue 06:05:21 AM 43.1478 -76.3514 264° West 441 507 25,100 600 Climbing Cleveland Center
Tue 06:06:21 AM 43.1350 -76.5172 264° West 441 507 25,700 600 Climbing Cleveland Center
Tue 06:07:21 AM 43.1197 -76.6833 263° West 447 514 26,300 650 Climbing Cleveland Center
Tue 06:08:21 AM 43.1064 -76.8464 264° West 447 514 27,000 650 Climbing Cleveland Center
Tue 06:09:21 AM 43.0908 -77.0094 263° West 447 514 27,600 500 Climbing Cleveland Center
Tue 06:10:21 AM 43.0769 -77.1722 263° West 447 514 28,000 200 Climbing Cleveland Center
Tue 06:11:21 AM 43.0608 -77.3381 262° West 447 514 28,000  Level Cleveland Center
Tue 06:12:21 AM 43.0444 -77.5064 262° West 452 520 28,000  Level Cleveland Center
Tue 06:13:21 AM 43.0281 -77.6722 262° West 447 514 28,000  Level Cleveland Center
Tue 06:14:21 AM 43.0133 -77.8403 263° West 447 514 28,000  Level Cleveland Center
Tue 06:15:21 AM 42.9964 -78.0086 262° West 447 514 28,000  Level Cleveland Center
Tue 06:16:21 AM 42.9811 -78.1708 263° West 447 514 28,000  Level Cleveland Center
Tue 06:17:21 AM 42.9636 -78.3392 262° West 447 514 28,000  Level Cleveland Center
Tue 06:18:21 AM 42.9442 -78.5214 262° West 452 520 28,000  Level Cleveland Center
Tue 06:19:21 AM 42.9261 -78.6864 262° West 447 514 28,000  Level Cleveland Center
Tue 06:20:21 AM 42.9017 -78.8514 259° West 447 514 28,000  Level Cleveland Center
Tue 06:21:21 AM 42.8789 -79.0136 259° West 447 514 28,000  Level Cleveland Center
Tue 06:22:21 AM 42.8561 -79.1814 260° West 447 514 28,000  Level Cleveland Center
Tue 06:23:21 AM 42.8267 -79.3406 256° West 447 514 28,000  Level Cleveland Center
Tue 06:24:21 AM 42.8053 -79.5050 260° West 452 520 28,000  Level Cleveland Center
Tue 06:25:21 AM 42.7817 -79.6667 259° West 446 513 28,000  Level Cleveland Center
Tue 06:26:21 AM 42.7578 -79.8281 259° West 446 513 28,000  Level Cleveland Center
Tue 06:27:21 AM 42.7442 -79.9953 264° West 446 513 28,000  Level Cleveland Center
Tue 06:28:21 AM 42.7386 -80.1592 267° West 446 513 28,000  Level Cleveland Center
Tue 06:29:21 AM 42.7308 -80.3231 266° West 440 506 28,000  Level Cleveland Center
Tue 06:30:21 AM 42.7247 -80.4900 267° West 440 506 28,000  Level Cleveland Center
Tue 06:31:21 AM 42.7186 -80.6342 267° West 440 506 28,000  Level Cleveland Center
Tue 06:32:21 AM 42.7122 -80.8008 267° West 445 512 28,000 -300 Level Cleveland Center
Tue 06:33:21 AM 42.6972 -80.9589 263° West 439 505 27,400 -800 Descending Cleveland Center
Tue 06:34:21 AM 42.6800 -81.1142 261° West 422 486 26,400 -1,450 Descending Cleveland Center
Tue 06:35:21 AM 42.6625 -81.2750 262° West 427 491 24,500 -1,950 Descending Cleveland Center
Tue 06:36:21 AM 42.6447 -81.4383 262° West 432 497 22,500 -1,900 Descending Cleveland Center
Tue 06:37:21 AM 42.6267 -81.5961 261° West 432 497 20,700 -1,700 Descending Cleveland Center
Tue 06:38:21 AM 42.6064 -81.7539 260° West 432 497 19,100 -1,500 Descending Cleveland Center
Tue 06:39:21 AM 42.5881 -81.9031 261° West 421 484 17,700 -1,450 Descending Cleveland Center
Tue 06:40:21 AM 42.5697 -82.0519 261° West 409 471 16,200 -1,685 Descending Cleveland Center
Tue 06:40:50 AM 42.5600 -82.1447 262° West 397 457 15,200 -1,729 Descending Cleveland Center
Tue 06:41:20 AM 42.5528 -82.2094 261° West 393 452 14,500 -1,319 Descending Cleveland Center
Tue 06:42:21 AM 42.5322 -82.3386 258° West 398 458 13,200 -1,190 Descending Cleveland Center
Tue 06:43:21 AM 42.5175 -82.4789 262° West 392 451 12,100 -600 Descending Cleveland Center
Tue 06:44:21 AM 42.4839 -82.6103 251° West 382 440 12,000 -850 Descending Cleveland Center
Tue 06:45:21 AM 42.4467 -82.7161 245° Southwest 355 409 10,400 -1,450 Descending Cleveland Center
Tue 06:46:21 AM 42.4136 -82.8133 245° Southwest 317 365 9,100 -1,250 Descending Cleveland Center
Tue 06:47:21 AM 42.3928 -82.9111 254° West 284 327 7,900 -1,500 Descending Cleveland Center
Tue 06:48:21 AM 42.3803 -83.0089 260° West 273 314 6,100 -1,091 Descending Cleveland Center
Tue 06:49:22 AM 42.3681 -83.1014 260° West 268 308 5,700 -1,000 Descending Cleveland Center
Tue 06:50:21 AM 42.3594 -83.1992 263° West 263 303 4,100 -1,429 Descending Cleveland Center
Tue 06:51:28 AM 42.3122 -83.2675 227° Southwest 166 191 2,700 -1,039 Descending Cleveland Center
Tue 06:52:28 AM 42.2761 -83.2942 209° Southwest 113 130 1,900 -800 Descending Cleveland Center

Login

Don't have an account? Register now (free) for customized features, flight alerts, and more!